Time;durP1;ratioP1;P1;durP2;ratioP2;P2;SDS_P1;SDS_P2;PMS_P1;PMS_P2;Temp;Humidity;BMP_temperature;BMP_pressure;BME280_temperature;BME280_humidity;BME280_pressure;Samples;Min_cycle;Max_cycle;Signal;HPM_P1;HPM_P2
2022/10/18 05:01:41;;;;;;;16.60;5.90;;;14.30;99.90;;;;;;6077165;23;21459;31
2022/10/18 05:04:07;;;;;;;13.27;5.35;;;14.30;99.90;;;;;;6134326;23;20331;-69
2022/10/18 05:06:33;;;;;;;10.38;4.55;;;14.30;99.90;;;;;;6133739;23;19998;-70
2022/10/18 05:08:59;;;;;;;8.82;4.40;;;14.40;99.90;;;;;;6134153;23;20001;-69
2022/10/18 05:11:25;;;;;;;7.20;3.80;;;14.30;99.90;;;;;;6133265;23;20001;-71
2022/10/18 05:13:51;;;;;;;9.20;4.13;;;14.30;99.90;;;;;;6132608;23;20269;-70
2022/10/18 05:16:17;;;;;;;9.30;4.28;;;14.40;99.90;;;;;;6133368;23;19994;-71
2022/10/18 05:18:43;;;;;;;6.75;4.22;;;14.40;99.90;;;;;;6132611;23;20005;-71
2022/10/18 05:21:11;;;;;;;6.22;3.63;;;14.50;99.90;;;;;;6132956;23;19998;-69
2022/10/18 05:23:37;;;;;;;8.68;3.92;;;14.50;99.90;;;;;;6132432;23;20287;-69
2022/10/18 05:26:05;;;;;;;10.13;4.32;;;14.40;99.90;;;;;;6132404;23;20025;-68
2022/10/18 05:28:31;;;;;;;9.05;4.13;;;14.50;99.90;;;;;;6133077;23;20000;-73
2022/10/18 05:31:01;;;;;;;11.25;5.25;;;14.50;99.90;;;;;;6132630;23;20053;-69
2022/10/18 05:33:28;;;;;;;15.73;4.93;;;14.50;99.90;;;;;;6132623;23;20006;-70
2022/10/18 05:35:54;;;;;;;10.95;4.63;;;14.50;99.90;;;;;;6130775;23;20179;-70
2022/10/18 05:38:20;;;;;;;8.43;3.95;;;14.50;99.90;;;;;;6132802;23;20021;-75
2022/10/18 05:40:45;;;;;;;9.18;4.78;;;14.40;99.90;;;;;;6132029;23;20009;-70
2022/10/18 05:43:11;;;;;;;10.50;4.70;;;14.30;99.90;;;;;;6132854;23;20032;-69
2022/10/18 05:45:37;;;;;;;26.27;17.00;;;14.30;99.90;;;;;;6132454;23;20213;-68
2022/10/18 05:48:04;;;;;;;14.35;6.35;;;14.20;99.90;;;;;;6132450;23;20009;-68
2022/10/18 05:50:30;;;;;;;11.55;4.82;;;14.20;99.90;;;;;;6131326;23;20009;-69
2022/10/18 05:52:56;;;;;;;13.13;4.88;;;14.20;99.90;;;;;;6132374;23;20013;-69
2022/10/18 05:55:22;;;;;;;11.30;4.40;;;14.20;99.90;;;;;;6132470;23;20122;-70
2022/10/18 05:57:49;;;;;;;10.13;5.18;;;14.30;99.90;;;;;;6131925;23;20041;-68
2022/10/18 06:00:15;;;;;;;28.65;17.75;;;14.20;99.90;;;;;;6132621;23;20000;-68
2022/10/18 06:02:41;;;;;;;19.52;9.77;;;14.20;99.90;;;;;;6149746;23;20318;-69
2022/10/18 06:05:07;;;;;;;14.20;6.07;;;14.30;99.90;;;;;;6162410;23;20099;-69
2022/10/18 06:07:32;;;;;;;11.60;5.30;;;14.30;99.90;;;;;;6160664;23;20002;-69
2022/10/18 06:09:58;;;;;;;11.90;5.55;;;14.30;99.90;;;;;;6161462;23;20005;-70
2022/10/18 06:12:24;;;;;;;16.35;5.43;;;14.30;99.90;;;;;;6162139;23;20001;-69
2022/10/18 06:14:50;;;;;;;17.48;6.20;;;14.30;99.90;;;;;;6161185;23;20387;-68
2022/10/18 06:17:15;;;;;;;15.30;6.05;;;14.30;99.90;;;;;;6162319;23;20328;-70
2022/10/18 06:19:43;;;;;;;16.90;6.30;;;14.40;99.90;;;;;;6161334;23;20008;-68
2022/10/18 06:22:09;;;;;;;14.20;5.65;;;14.50;99.90;;;;;;6161930;23;19993;-69
2022/10/18 06:24:35;;;;;;;16.63;6.18;;;14.50;99.90;;;;;;6135423;23;20180;-69
2022/10/18 06:27:07;;;;;;;11.50;5.97;;;14.70;99.90;;;;;;6162284;23;20025;-68
2022/10/18 06:29:32;;;;;;;15.70;6.38;;;14.80;99.90;;;;;;6162246;23;20080;-69
2022/10/18 06:31:58;;;;;;;12.95;5.88;;;15.00;99.90;;;;;;6161406;23;19997;-70
2022/10/18 06:34:24;;;;;;;13.25;6.10;;;15.20;99.90;;;;;;6162317;23;20004;-70
2022/10/18 06:36:49;;;;;;;15.13;5.97;;;15.40;99.90;;;;;;6161539;23;20310;-70
2022/10/18 06:39:15;;;;;;;11.05;5.97;;;15.60;99.90;;;;;;6161967;23;20033;-71
2022/10/18 06:41:41;;;;;;;13.38;6.05;;;15.80;99.90;;;;;;6161193;23;20075;-71
2022/10/18 06:44:18;;;;;;;12.95;5.45;;;15.90;99.90;;;;;;6135825;23;20032;-70
2022/10/18 06:46:45;;;;;;;17.05;6.30;;;16.10;99.90;;;;;;6160149;23;20068;-70
2022/10/18 06:49:13;;;;;;;13.30;6.00;;;16.20;99.90;;;;;;6162101;23;20310;-71
2022/10/18 06:51:40;;;;;;;19.77;6.23;;;16.30;99.90;;;;;;6161663;23;20012;-71
2022/10/18 06:54:05;;;;;;;13.20;6.13;;;16.30;99.90;;;;;;6162107;23;20005;-71
2022/10/18 06:56:32;;;;;;;18.02;6.28;;;16.30;99.90;;;;;;6161842;23;20190;-70
2022/10/18 06:58:57;;;;;;;18.25;6.45;;;16.40;99.90;;;;;;6161326;23;20319;-69
2022/10/18 07:01:23;;;;;;;14.98;6.88;;;16.40;99.90;;;;;;6161634;23;19985;-70
2022/10/18 07:03:52;;;;;;;19.33;7.70;;;16.50;99.90;;;;;;6191563;23;20024;-70
2022/10/18 07:06:19;;;;;;;16.10;6.05;;;16.50;99.90;;;;;;6191748;23;20173;-70
2022/10/18 07:08:47;;;;;;;16.02;6.85;;;16.60;99.90;;;;;;6190994;23;19993;-70
2022/10/18 07:11:23;;;;;;;14.60;6.83;;;16.70;99.90;;;;;;6192208;23;20340;-70
2022/10/18 07:13:49;;;;;;;11.65;6.07;;;16.70;99.90;;;;;;6192057;23;20005;-70
2022/10/18 07:16:16;;;;;;;18.02;7.20;;;16.80;99.90;;;;;;6194144;23;19992;-69
2022/10/18 07:18:48;;;;;;;19.17;7.20;;;16.90;99.90;;;;;;6193278;23;20322;-70
2022/10/18 07:21:16;;;;;;;23.90;7.38;;;17.00;99.90;;;;;;6193728;23;20279;-70
2022/10/18 07:23:45;;;;;;;16.88;7.07;;;17.00;99.90;;;;;;6192552;23;20009;-71
2022/10/18 07:26:16;;;;;;;19.35;8.05;;;17.00;99.90;;;;;;6193409;23;20008;-70
2022/10/18 07:28:44;;;;;;;16.65;7.40;;;17.10;99.90;;;;;;6192599;23;19997;-70
2022/10/18 07:31:10;;;;;;;8.88;3.72;;;17.10;99.90;;;;;;6192859;23;20198;-70
2022/10/18 07:33:41;;;;;;;8.05;4.10;;;17.30;99.90;;;;;;6193333;23;20028;-69
2022/10/18 07:36:09;;;;;;;8.07;2.75;;;17.70;99.90;;;;;;6191578;23;19993;-70
2022/10/18 07:38:35;;;;;;;9.18;3.13;;;18.10;99.90;;;;;;6193133;23;19997;-70
2022/10/18 07:41:03;;;;;;;4.72;2.42;;;18.50;99.90;;;;;;6192497;23;20008;-70
2022/10/18 07:43:29;;;;;;;5.03;2.60;;;18.80;99.90;;;;;;6191651;23;20013;-69
2022/10/18 07:45:57;;;;;;;5.40;2.70;;;19.10;99.90;;;;;;6192555;23;19997;-70
2022/10/18 07:48:23;;;;;;;6.40;2.90;;;19.20;99.90;;;;;;6193221;23;20001;-69
2022/10/18 07:50:49;;;;;;;6.40;2.67;;;19.40;99.90;;;;;;6192421;23;20052;-69
2022/10/18 07:53:15;;;;;;;6.32;2.90;;;19.50;99.90;;;;;;6192689;23;19996;-69
2022/10/18 07:55:42;;;;;;;8.10;3.55;;;19.70;99.90;;;;;;6192569;23;19997;-70
2022/10/18 07:58:07;;;;;;;9.30;3.40;;;19.60;99.90;;;;;;6193126;23;20008;-69
2022/10/18 08:00:33;;;;;;;10.18;3.83;;;19.40;99.90;;;;;;6193025;23;20009;-69
2022/10/18 08:02:59;;;;;;;10.02;3.47;;;19.30;99.90;;;;;;6171533;23;20487;-69
2022/10/18 08:05:26;;;;;;;16.65;3.90;;;19.10;99.90;;;;;;6162675;23;20036;-69
2022/10/18 08:07:52;;;;;;;11.13;3.83;;;19.00;99.90;;;;;;6162580;23;20033;-69
2022/10/18 08:10:19;;;;;;;10.70;3.47;;;19.00;99.90;;;;;;6162985;23;20103;-69
2022/10/18 08:12:45;;;;;;;9.73;3.38;;;18.90;99.90;;;;;;6160449;23;20028;-69
2022/10/18 08:15:11;;;;;;;11.40;4.00;;;18.80;99.90;;;;;;6162882;23;20056;-74
2022/10/18 08:17:36;;;;;;;13.27;3.90;;;18.70;99.90;;;;;;6163095;23;20032;-74
2022/10/18 08:20:03;;;;;;;10.73;3.42;;;18.50;99.90;;;;;;6161009;23;20045;-72
2022/10/18 08:22:29;;;;;;;8.20;3.30;;;18.40;99.90;;;;;;6163105;23;20013;-73
2022/10/18 08:24:55;;;;;;;9.50;4.43;;;18.30;99.90;;;;;;6161723;23;20028;-72
2022/10/18 08:27:20;;;;;;;10.88;3.42;;;18.40;99.90;;;;;;6162809;23;20080;-73
2022/10/18 08:29:47;;;;;;;9.57;3.65;;;18.40;99.90;;;;;;6162417;23;20106;-73
2022/10/18 08:32:13;;;;;;;9.50;3.65;;;18.40;99.90;;;;;;6163017;23;20006;-75
2022/10/18 08:34:38;;;;;;;11.85;3.63;;;18.50;99.90;;;;;;6160916;23;20235;-75
2022/10/18 08:37:04;;;;;;;10.07;3.90;;;18.50;99.90;;;;;;6162105;23;20001;-73
2022/10/18 08:39:30;;;;;;;13.10;4.40;;;18.60;99.90;;;;;;6162609;23;20001;-71
2022/10/18 08:42:17;;;;;;;10.77;3.95;;;18.60;99.90;;;;;;6135883;23;20002;-69
2022/10/18 08:44:48;;;;;;;6.50;2.72;;;18.60;99.90;;;;;;6162144;23;20001;-67
2022/10/18 08:47:19;;;;;;;8.25;3.03;;;19.00;99.90;;;;;;6161323;23;20028;-71
2022/10/18 08:50:00;;;;;;;7.20;2.83;;;19.40;99.90;;;;;;6162008;23;20002;-69
2022/10/18 08:52:46;;;;;;;4.47;3.08;;;19.70;99.90;;;;;;6163148;23;20005;-69
2022/10/18 08:55:23;;;;;;;5.80;2.38;;;20.10;99.90;;;;;;6161758;23;20017;-70
2022/10/18 08:57:49;;;;;;;4.80;2.33;;;20.30;99.90;;;;;;6162048;23;20227;-68
2022/10/18 09:00:21;;;;;;;7.07;2.60;;;20.50;99.90;;;;;;6162784;23;20001;-69
2022/10/18 09:03:20;;;;;;;7.03;2.67;;;20.60;99.90;;;;;;6178684;23;20083;-70
2022/10/18 09:05:51;;;;;;;6.15;2.55;;;20.80;99.90;;;;;;6191713;23;20020;-70
2022/10/18 09:09:10;;;;;;;6.20;2.70;;;20.80;99.90;;;;;;6192448;23;20001;-69
2022/10/18 09:12:01;;;;;;;5.90;2.60;;;20.80;99.90;;;;;;6043534;23;20053;-70
2022/10/18 09:14:57;;;;;;;5.18;2.25;;;20.80;99.90;;;;;;6186867;23;20314;-70
2022/10/18 09:17:41;;;;;;;9.93;2.30;;;20.90;99.90;;;;;;6192574;23;20005;-69
2022/10/18 09:20:29;;;;;;;8.13;2.67;;;21.10;99.90;;;;;;6192015;23;20056;-71
2022/10/18 09:23:18;;;;;;;5.90;2.05;;;21.20;99.90;;;;;;6190497;23;20013;-70
2022/10/18 09:25:52;;;;;;;9.18;3.00;;;21.40;99.90;;;;;;6191658;23;20068;-70
2022/10/18 09:28:48;;;;;;;9.07;3.47;;;21.50;99.90;;;;;;6192793;23;20385;-70
2022/10/18 09:31:37;;;;;;;9.65;3.90;;;21.80;99.90;;;;;;6192148;23;20001;-71
2022/10/18 09:34:29;;;;;;;8.82;3.70;;;22.20;99.90;;;;;;6191781;23;20001;-72
2022/10/18 09:36:56;;;;;;;7.72;2.97;;;22.60;99.90;;;;;;6191277;23;20001;-73
2022/10/18 09:39:29;;;;;;;8.43;2.95;;;22.90;99.90;;;;;;6192167;23;20183;-71
2022/10/18 09:41:57;;;;;;;6.55;2.50;;;23.10;99.90;;;;;;6191426;23;20409;-71
2022/10/18 09:44:26;;;;;;;5.38;2.38;;;23.00;99.90;;;;;;6191777;23;20345;-70
2022/10/18 09:46:59;;;;;;;5.85;2.50;;;23.00;99.90;;;;;;6191862;23;20001;-73
2022/10/18 09:49:48;;;;;;;5.97;2.60;;;22.80;99.90;;;;;;6166186;23;20037;-74
2022/10/18 09:52:27;;;;;;;5.20;2.08;;;22.40;99.90;;;;;;6191931;23;20023;-75
2022/10/18 09:55:00;;;;;;;6.28;2.22;;;22.10;99.90;;;;;;6191671;23;20024;-70
2022/10/18 09:57:34;;;;;;;4.82;2.17;;;21.90;99.90;;;;;;6191974;23;20005;-69
2022/10/18 10:00:02;;;;;;;9.98;3.10;;;21.80;99.90;;;;;;6190217;23;20008;-68
2022/10/18 10:02:30;;;;;;;4.78;2.45;;;21.70;99.90;;;;;;6191466;23;20361;-69
2022/10/18 10:04:56;;;;;;;5.70;2.55;;;21.70;99.90;;;;;;6191805;23;20100;-68
2022/10/18 10:07:33;;;;;;;6.53;2.20;;;21.70;99.90;;;;;;6192178;23;20011;-69
2022/10/18 10:10:13;;;;;;;5.85;2.10;;;21.80;99.90;;;;;;6191263;23;20024;-70
2022/10/18 10:12:39;;;;;;;4.93;2.30;;;21.70;99.90;;;;;;6192147;23;20057;-70
2022/10/18 10:15:24;;;;;;;8.20;2.60;;;21.80;99.90;;;;;;6191843;23;20025;-68
2022/10/18 10:18:05;;;;;;;8.20;2.60;;;21.80;99.90;;;;;;6191184;23;20020;-69
2022/10/18 10:20:45;;;;;;;6.18;2.50;;;21.90;99.90;;;;;;6191845;23;20323;-72
2022/10/18 10:23:27;;;;;;;8.23;2.90;;;21.90;99.90;;;;;;6191673;23;20008;-70
2022/10/18 10:26:02;;;;;;;6.88;2.83;;;21.90;99.90;;;;;;6191615;23;20013;-70
2022/10/18 10:28:35;;;;;;;7.10;2.75;;;21.90;99.90;;;;;;6192113;23;20042;-70
2022/10/18 10:31:23;;;;;;;7.30;2.45;;;22.00;99.90;;;;;;6191029;23;20208;-71
2022/10/18 10:34:05;;;;;;;5.82;2.30;;;22.10;99.90;;;;;;6191392;23;19993;-71
2022/10/18 10:36:33;;;;;;;5.25;2.53;;;22.40;99.90;;;;;;6192032;23;20005;-70
2022/10/18 10:39:18;;;;;;;4.70;2.60;;;22.60;99.90;;;;;;6191402;23;20056;-70
2022/10/18 10:41:49;;;;;;;10.43;2.90;;;22.80;99.90;;;;;;6190083;23;20053;-69
2022/10/18 10:44:32;;;;;;;5.50;2.53;;;23.10;99.50;;;;;;6191929;23;20291;-70
2022/10/18 10:46:58;;;;;;;5.85;2.67;;;23.30;99.40;;;;;;6191048;23;20190;-70
2022/10/18 10:49:42;;;;;;;5.72;2.45;;;23.80;99.10;;;;;;6193479;23;20139;-71
2022/10/18 10:52:17;;;;;;;5.00;2.25;;;24.50;97.90;;;;;;6193095;23;20336;-71
2022/10/18 10:54:44;;;;;;;9.60;2.63;;;24.90;97.00;;;;;;6193616;23;19997;-72
2022/10/18 10:57:11;;;;;;;6.72;2.25;;;25.50;96.20;;;;;;6193097;23;20028;-70
2022/10/18 10:59:49;;;;;;;5.53;2.10;;;26.10;95.00;;;;;;6193764;23;20051;-71
2022/10/18 11:02:17;;;;;;;11.10;2.88;;;26.70;94.10;;;;;;6193481;23;20012;-70
2022/10/18 11:04:54;;;;;;;6.90;2.38;;;26.80;93.50;;;;;;6193280;23;20001;-76
2022/10/18 11:07:32;;;;;;;6.13;2.42;;;26.70;93.20;;;;;;6193480;23;20275;-71
2022/10/18 11:10:11;;;;;;;6.57;2.60;;;26.30;93.40;;;;;;6192886;23;20279;-70
2022/10/18 11:13:08;;;;;;;8.35;2.60;;;25.40;94.40;;;;;;6193646;23;19997;-69
2022/10/18 11:15:49;;;;;;;8.80;2.55;;;24.70;95.60;;;;;;6193422;23;20056;-70
2022/10/18 11:18:28;;;;;;;7.10;2.75;;;24.30;96.30;;;;;;6193585;23;19993;-70
2022/10/18 11:21:15;;;;;;;6.47;2.60;;;24.10;96.40;;;;;;6192766;23;20001;-69
2022/10/18 11:23:42;;;;;;;7.68;2.42;;;24.20;97.20;;;;;;6192345;23;20005;-70
2022/10/18 11:26:11;;;;;;;5.10;2.17;;;25.20;95.50;;;;;;6192196;23;20312;-70
2022/10/18 11:29:01;;;;;;;6.30;2.30;;;26.60;93.80;;;;;;6191497;23;20306;-70
2022/10/18 11:31:45;;;;;;;6.60;2.30;;;27.70;92.00;;;;;;6193185;23;20012;-71
2022/10/18 11:34:34;;;;;;;6.68;2.08;;;28.80;90.50;;;;;;6192836;23;20004;-72
2022/10/18 11:37:30;;;;;;;6.95;2.30;;;29.90;87.70;;;;;;6192735;23;19997;-71
2022/10/18 11:40:24;;;;;;;7.25;2.13;;;30.30;85.40;;;;;;6192815;23;20120;-71
2022/10/18 11:42:58;;;;;;;2.80;1.90;;;31.40;83.30;;;;;;6173617;23;20088;-70
2022/10/18 11:45:51;;;;;;;7.18;2.00;;;31.50;79.40;;;;;;6192771;23;20183;-71
2022/10/18 11:48:57;;;;;;;9.60;2.10;;;30.90;79.50;;;;;;6193095;23;19997;-71
2022/10/18 11:51:41;;;;;;;5.80;2.10;;;31.10;79.00;;;;;;6162736;23;20043;-71
2022/10/18 11:55:06;;;;;;;11.35;2.60;;;30.40;78.50;;;;;;6192356;23;20048;-70
2022/10/18 11:58:25;;;;;;;8.38;2.10;;;30.60;80.70;;;;;;6144570;23;20001;-70
2022/10/18 12:01:11;;;;;;;7.32;1.90;;;31.90;78.60;;;;;;6130740;23;20338;-72
2022/10/18 12:04:01;;;;;;;5.97;2.03;;;33.00;76.90;;;;;;6131169;23;20037;-71
2022/10/18 12:06:37;;;;;;;6.25;2.03;;;32.70;73.90;;;;;;6185357;23;20028;-72
2022/10/18 12:09:31;;;;;;;4.43;1.60;;;31.40;75.10;;;;;;6191992;23;20272;-73
2022/10/18 12:12:35;;;;;;;4.60;1.70;;;32.60;74.80;;;;;;6192179;23;20248;-73
2022/10/18 12:15:11;;;;;;;3.90;2.05;;;32.60;74.00;;;;;;6073529;23;20002;-71
2022/10/18 12:17:42;;;;;;;7.88;2.20;;;32.00;74.10;;;;;;6181540;23;20005;-72
2022/10/18 12:20:32;;;;;;;5.22;1.90;;;31.70;75.00;;;;;;6194664;23;19997;-72
2022/10/18 12:22:58;;;;;;;3.90;1.50;;;33.40;72.30;;;;;;6192467;23;20005;-73
2022/10/18 12:25:25;;;;;;;3.33;1.08;;;34.00;70.30;;;;;;6192492;23;20004;-71
2022/10/18 12:28:13;;;;;;;5.10;1.80;;;33.50;69.80;;;;;;6192962;23;20052;-71
2022/10/18 12:30:53;;;;;;;4.00;1.25;;;32.20;72.60;;;;;;6192790;23;20041;-71
2022/10/18 12:33:25;;;;;;;3.17;1.20;;;31.80;72.70;;;;;;6193006;23;20262;-72
2022/10/18 12:36:10;;;;;;;4.70;1.10;;;30.70;74.30;;;;;;6192450;23;20032;-72
2022/10/18 12:38:39;;;;;;;3.83;1.30;;;29.30;77.60;;;;;;6192737;23;19993;-71
2022/10/18 12:41:05;;;;;;;3.90;1.40;;;28.20;79.40;;;;;;6191795;23;20009;-71
2022/10/18 12:43:35;;;;;;;2.63;1.20;;;27.50;82.20;;;;;;6166506;23;20012;-71
2022/10/18 12:46:04;;;;;;;4.80;1.40;;;27.90;81.30;;;;;;6192198;23;20009;-69
2022/10/18 12:48:44;;;;;;;4.20;1.38;;;29.00;79.20;;;;;;6192864;23;20008;-71
2022/10/18 12:51:16;;;;;;;3.90;1.27;;;29.60;78.30;;;;;;6192229;23;19997;-73
2022/10/18 12:53:48;;;;;;;3.25;1.63;;;30.00;76.90;;;;;;6192432;23;20025;-71
2022/10/18 12:56:26;;;;;;;3.15;1.30;;;30.80;75.80;;;;;;6191619;23;20087;-70
2022/10/18 12:59:12;;;;;;;4.78;1.65;;;32.00;74.20;;;;;;6193185;23;20317;-71
2022/10/18 13:01:50;;;;;;;4.97;1.40;;;32.90;72.60;;;;;;6165378;23;19997;-71
2022/10/18 13:04:28;;;;;;;4.13;1.50;;;34.30;69.90;;;;;;6191638;23;20176;-74
2022/10/18 13:06:56;;;;;;;6.22;1.58;;;34.70;69.50;;;;;;6192268;23;20000;-73
2022/10/18 13:09:24;;;;;;;4.75;1.45;;;33.90;69.80;;;;;;6192632;23;20318;-70
2022/10/18 13:11:53;;;;;;;6.43;1.80;;;32.40;71.40;;;;;;6192076;23;20008;-72
2022/10/18 13:14:27;;;;;;;4.95;1.88;;;31.20;74.20;;;;;;6191638;23;20101;-73
2022/10/18 13:17:09;;;;;;;7.10;2.10;;;31.00;74.80;;;;;;6191937;23;20020;-73
2022/10/18 13:19:58;;;;;;;5.85;1.35;;;31.70;73.60;;;;;;6192538;23;20001;-73
2022/10/18 13:22:51;;;;;;;5.97;1.95;;;31.50;73.50;;;;;;6192510;23;20013;-71
2022/10/18 13:25:46;;;;;;;5.32;1.17;;;30.40;75.10;;;;;;6191637;23;20016;-71
2022/10/18 13:28:33;;;;;;;2.92;1.10;;;28.90;77.20;;;;;;6191347;23;20060;-71
2022/10/18 13:31:20;;;;;;;2.50;1.43;;;28.30;79.60;;;;;;6191315;23;20039;-72
2022/10/18 13:33:47;;;;;;;2.95;1.23;;;28.20;78.50;;;;;;6192346;23;20376;-70
2022/10/18 13:36:15;;;;;;;2.17;1.02;;;27.60;79.20;;;;;;6191067;23;20001;-70
2022/10/18 13:39:02;;;;;;;5.75;1.15;;;28.00;79.50;;;;;;6191937;23;20034;-73
2022/10/18 13:41:42;;;;;;;2.42;0.95;;;28.70;79.50;;;;;;6191958;23;20020;-72
2022/10/18 13:44:31;;;;;;;3.47;0.80;;;29.20;75.80;;;;;;6191478;23;20005;-71
2022/10/18 13:46:56;;;;;;;3.33;0.93;;;29.40;74.80;;;;;;6191751;23;19997;-71
2022/10/18 13:49:30;;;;;;;2.22;0.90;;;30.10;74.90;;;;;;6192141;23;19989;-69
2022/10/18 13:52:02;;;;;;;3.33;1.02;;;31.80;72.90;;;;;;6192974;23;20275;-71
2022/10/18 13:54:42;;;;;;;5.18;0.70;;;32.70;72.30;;;;;;6191941;23;20181;-72
2022/10/18 13:57:14;;;;;;;4.18;0.90;;;32.30;70.30;;;;;;6192716;23;20053;-70
2022/10/18 14:00:22;;;;;;;3.45;1.10;;;31.80;71.40;;;;;;6193516;23;20008;-73
2022/10/18 14:03:06;;;;;;;2.78;1.15;;;32.40;71.20;;;;;;6175321;23;20021;-73
2022/10/18 14:05:41;;;;;;;2.30;1.13;;;32.00;71.70;;;;;;6162046;23;20291;-72
2022/10/18 14:08:33;;;;;;;4.75;1.38;;;32.60;70.90;;;;;;6162612;23;20005;-72
2022/10/18 14:11:04;;;;;;;4.85;1.33;;;32.70;70.30;;;;;;6163373;23;20045;-72
2022/10/18 14:13:42;;;;;;;3.45;1.20;;;32.40;70.90;;;;;;6163371;23;20013;-72
2022/10/18 14:16:33;;;;;;;3.65;1.35;;;32.70;70.10;;;;;;6162851;23;20008;-73
2022/10/18 14:19:18;;;;;;;3.22;1.20;;;33.00;70.20;;;;;;6162451;23;20009;-74
2022/10/18 14:22:11;;;;;;;5.00;1.40;;;33.60;69.00;;;;;;6164013;23;20008;-72
2022/10/18 14:24:42;;;;;;;3.15;1.20;;;32.30;70.10;;;;;;6165537;23;20216;-72
2022/10/18 14:27:23;;;;;;;4.07;1.50;;;30.60;73.80;;;;;;6164435;23;19997;-71
2022/10/18 14:30:05;;;;;;;3.47;1.50;;;29.00;77.50;;;;;;6166287;23;20009;-71
2022/10/18 14:32:31;;;;;;;3.75;1.35;;;28.10;80.00;;;;;;6164823;23;20008;-71
2022/10/18 14:34:57;;;;;;;5.18;1.45;;;27.20;81.80;;;;;;6165231;23;20291;-72
2022/10/18 14:37:34;;;;;;;3.97;1.48;;;26.40;84.30;;;;;;6164135;23;20049;-71
2022/10/18 14:40:01;;;;;;;4.80;1.60;;;25.90;86.50;;;;;;6164790;23;20283;-72
2022/10/18 14:42:27;;;;;;;3.67;1.52;;;25.50;86.60;;;;;;6165281;23;20016;-71
2022/10/18 14:44:54;;;;;;;3.40;1.45;;;24.70;88.60;;;;;;6138996;23;20057;-71
2022/10/18 14:47:22;;;;;;;4.00;1.42;;;24.30;90.10;;;;;;6163454;23;20009;-72
2022/10/18 14:49:49;;;;;;;3.80;1.80;;;23.80;91.00;;;;;;6165162;23;20053;-70
2022/10/18 14:52:24;;;;;;;6.80;2.03;;;23.70;91.40;;;;;;6165098;23;20001;-71
2022/10/18 14:54:54;;;;;;;4.10;1.75;;;23.50;91.70;;;;;;6163804;23;20001;-71
2022/10/18 14:57:30;;;;;;;4.70;1.80;;;23.40;92.20;;;;;;6164298;23;20005;-72
2022/10/18 15:00:04;;;;;;;4.00;1.50;;;23.70;92.10;;;;;;6164009;23;20091;-70
2022/10/18 15:02:32;;;;;;;3.55;1.63;;;23.80;91.90;;;;;;6152109;23;20017;-72
2022/10/18 15:05:16;;;;;;;4.20;1.65;;;23.90;91.80;;;;;;6194960;23;20090;-70
2022/10/18 15:07:42;;;;;;;4.78;1.60;;;24.00;91.80;;;;;;6194931;23;20001;-71
2022/10/18 15:10:16;;;;;;;4.47;1.50;;;24.20;91.60;;;;;;6193949;23;20011;-71
2022/10/18 15:12:42;;;;;;;4.13;1.60;;;24.20;91.60;;;;;;6194693;23;20001;-70
2022/10/18 15:15:30;;;;;;;5.80;1.90;;;24.10;91.70;;;;;;6194494;23;20001;-70
2022/10/18 15:17:57;;;;;;;4.18;1.70;;;24.00;92.10;;;;;;6168478;23;20001;-72
2022/10/18 15:20:29;;;;;;;3.90;1.75;;;23.80;92.10;;;;;;6193776;23;20004;-71
2022/10/18 15:23:22;;;;;;;3.15;2.15;;;23.70;92.80;;;;;;6194442;23;20005;-71
2022/10/18 15:25:49;;;;;;;6.30;1.80;;;23.70;92.70;;;;;;6194888;23;20012;-71
2022/10/18 15:28:28;;;;;;;4.25;1.67;;;23.60;92.90;;;;;;6193780;23;19997;-70
2022/10/18 15:30:56;;;;;;;5.78;2.47;;;23.30;93.20;;;;;;6194147;23;20314;-71
2022/10/18 15:33:24;;;;;;;4.47;2.30;;;22.90;93.90;;;;;;6193072;23;20187;-71
2022/10/18 15:35:51;;;;;;;3.60;1.80;;;22.70;94.50;;;;;;6194242;23;20047;-71
2022/10/18 15:38:20;;;;;;;3.47;1.90;;;22.50;94.80;;;;;;6193355;23;20018;-72
2022/10/18 15:40:46;;;;;;;6.13;1.90;;;22.40;95.20;;;;;;6194256;23;19997;-71
2022/10/18 15:43:24;;;;;;;4.50;2.22;;;22.30;95.60;;;;;;6193589;23;19997;-72
2022/10/18 15:45:56;;;;;;;3.25;1.95;;;22.20;96.00;;;;;;6194430;23;20001;-72
2022/10/18 15:48:23;;;;;;;4.60;2.20;;;22.20;96.40;;;;;;6193337;23;20060;-72
2022/10/18 15:51:03;;;;;;;3.90;2.28;;;22.20;96.50;;;;;;6194500;23;20053;-72
2022/10/18 15:53:44;;;;;;;4.30;2.20;;;22.30;95.90;;;;;;6193948;23;20184;-72
2022/10/18 15:56:34;;;;;;;6.50;2.30;;;22.10;96.20;;;;;;6194342;23;20004;-72
2022/10/18 15:59:03;;;;;;;3.33;2.08;;;22.00;96.30;;;;;;6194225;23;20004;-71
2022/10/18 16:01:43;;;;;;;3.55;2.10;;;21.90;96.70;;;;;;6193921;23;19997;-71
2022/10/18 16:04:27;;;;;;;4.18;2.20;;;21.70;97.00;;;;;;6194246;23;20009;-73
2022/10/18 16:06:58;;;;;;;8.70;2.40;;;21.60;97.70;;;;;;6194141;23;19997;-71
2022/10/18 16:09:25;;;;;;;5.25;2.40;;;21.50;97.50;;;;;;6193633;23;20004;-71
2022/10/18 16:11:51;;;;;;;4.85;2.10;;;21.50;97.90;;;;;;6194541;23;20001;-71
2022/10/18 16:14:18;;;;;;;7.03;2.30;;;21.50;97.90;;;;;;6193745;23;20061;-73
2022/10/18 16:16:44;;;;;;;4.43;2.13;;;21.40;98.00;;;;;;6194377;23;20027;-72
2022/10/18 16:19:21;;;;;;;4.45;2.65;;;21.30;98.50;;;;;;6193635;23;20001;-71
2022/10/18 16:21:47;;;;;;;4.47;3.00;;;21.30;98.70;;;;;;6194270;23;20008;-69
2022/10/18 16:24:13;;;;;;;4.35;2.40;;;21.30;98.60;;;;;;6193733;23;20178;-71
2022/10/18 16:26:38;;;;;;;4.18;2.20;;;21.20;99.40;;;;;;6193580;23;20213;-71
2022/10/18 16:29:04;;;;;;;6.15;2.78;;;21.10;99.00;;;;;;6194179;23;19997;-70
2022/10/18 16:31:32;;;;;;;6.32;3.88;;;21.00;99.30;;;;;;6194306;23;20009;-72
2022/10/18 16:34:00;;;;;;;5.78;3.47;;;20.90;99.30;;;;;;6193915;23;20005;-74
2022/10/18 16:36:27;;;;;;;;;;;20.80;99.60;;;;;;6194514;23;20000;-74
2022/10/18 16:38:55;;;;;;;5.38;4.50;;;20.80;99.80;;;;;;6193558;23;19900;-71
2022/10/18 16:41:21;;;;;;;5.97;4.22;;;20.70;99.90;;;;;;6193526;23;20021;-73
2022/10/18 16:43:48;;;;;;;11.43;8.02;;;20.60;99.90;;;;;;6194051;23;20061;-71
2022/10/18 16:46:26;;;;;;;5.72;3.60;;;20.60;99.90;;;;;;6192483;23;20008;-72
2022/10/18 16:48:52;;;;;;;;;;;20.60;99.90;;;;;;6192744;23;20001;-72
2022/10/18 16:51:18;;;;;;;4.43;2.97;;;20.50;99.90;;;;;;6191943;23;19900;-71
2022/10/18 16:53:44;;;;;;;6.47;2.80;;;20.50;99.90;;;;;;6192801;23;20013;-70
2022/10/18 16:56:18;;;;;;;6.95;4.07;;;20.50;99.90;;;;;;6191938;23;20285;-71
2022/10/18 16:58:45;;;;;;;5.38;4.20;;;20.40;99.90;;;;;;6192650;23;20306;-71
2022/10/18 17:01:15;;;;;;;4.05;2.88;;;20.30;99.90;;;;;;6191585;23;19996;-71
2022/10/18 17:03:41;;;;;;;6.20;3.65;;;20.30;99.90;;;;;;6192993;23;20013;-71
2022/10/18 17:06:14;;;;;;;6.60;3.10;;;20.30;99.90;;;;;;6167166;23;20004;-71
2022/10/18 17:08:40;;;;;;;5.75;2.80;;;20.20;99.90;;;;;;6192512;23;20084;-70
2022/10/18 17:11:06;;;;;;;5.00;2.70;;;20.20;99.90;;;;;;6192578;23;20004;-72
2022/10/18 17:13:31;;;;;;;5.20;2.90;;;20.10;99.90;;;;;;6193788;23;20044;-70
2022/10/18 17:15:59;;;;;;;4.93;3.40;;;20.00;99.90;;;;;;6193744;23;20001;-72
2022/10/18 17:18:34;;;;;;;5.93;3.47;;;20.00;99.90;;;;;;5128687;27;20132;-71
2022/10/18 17:21:01;;;;;;;7.18;3.45;;;19.90;99.90;;;;;;5115583;28;20229;-71
2022/10/18 17:23:29;;;;;;;4.10;2.83;;;19.90;99.90;;;;;;5097273;28;20040;-71
2022/10/18 17:25:54;;;;;;;5.45;3.20;;;19.80;99.90;;;;;;5098281;28;20179;-72
2022/10/18 17:28:21;;;;;;;5.53;3.30;;;19.80;99.90;;;;;;5098320;28;20060;-72
2022/10/18 17:30:47;;;;;;;6.00;3.70;;;19.70;99.90;;;;;;5098226;28;20020;-71
2022/10/18 17:33:13;;;;;;;7.18;4.30;;;19.70;99.90;;;;;;5095947;28;20060;-71
2022/10/18 17:35:40;;;;;;;7.65;4.05;;;19.60;99.90;;;;;;5098158;28;20292;-71
2022/10/18 17:38:06;;;;;;;5.10;3.92;;;19.50;99.90;;;;;;5097777;28;20186;-73
2022/10/18 17:40:33;;;;;;;6.45;3.70;;;19.50;99.90;;;;;;5097187;28;20044;-72
2022/10/18 17:42:59;;;;;;;4.90;3.58;;;19.40;99.90;;;;;;5097186;28;20182;-72
2022/10/18 17:45:25;;;;;;;9.18;3.65;;;19.30;99.90;;;;;;5097773;28;20366;-71
2022/10/18 17:47:51;;;;;;;3.60;3.00;;;19.20;99.90;;;;;;5097420;28;20028;-71
2022/10/18 17:50:17;;;;;;;5.28;3.60;;;19.10;99.90;;;;;;5095916;28;20306;-71
2022/10/18 17:52:45;;;;;;;5.93;3.67;;;19.10;99.90;;;;;;5098000;28;20068;-71
2022/10/18 17:55:12;;;;;;;5.47;3.83;;;19.00;99.90;;;;;;5096515;28;20024;-72
2022/10/18 17:57:38;;;;;;;5.78;3.67;;;18.90;99.90;;;;;;5097741;28;20495;-71
2022/10/18 18:00:07;;;;;;;6.88;4.18;;;18.90;99.90;;;;;;5098313;28;20377;-72
2022/10/18 18:02:41;;;;;;;5.40;4.00;;;18.90;99.90;;;;;;5078944;28;20078;-73
2022/10/18 18:05:07;;;;;;;5.65;3.92;;;18.90;99.90;;;;;;5073143;28;20041;-70
2022/10/18 18:07:33;;;;;;;6.80;4.10;;;18.80;99.90;;;;;;5058165;28;20025;-72
2022/10/18 18:09:59;;;;;;;5.80;4.00;;;18.70;99.90;;;;;;5057189;28;20044;-71
2022/10/18 18:12:28;;;;;;;5.07;4.07;;;18.70;99.90;;;;;;5056955;28;20066;-72
2022/10/18 18:14:53;;;;;;;6.05;4.40;;;18.60;99.90;;;;;;5056778;28;20032;-72
2022/10/18 18:17:19;;;;;;;6.57;4.53;;;18.60;99.90;;;;;;5057978;28;20104;-71